Time;durP1;ratioP1;P1;durP2;ratioP2;P2;SDS_P1;SDS_P2;PMS_P1;PMS_P2;Temp;Humidity;BMP_temperature;BMP_pressure;BME280_temperature;BME280_humidity;BME280_pressure;Samples;Min_cycle;Max_cycle;Signal;HPM_P1;HPM_P2
2020/12/21 00:00:18;;;;;;;4.65;2.80;;;20.50;44.70;;;;;;6242621;28;20053;-64
2020/12/21 00:03:19;;;;;;;4.32;2.30;;;20.50;44.70;;;;;;6243148;28;20032;-64
2020/12/21 00:06:19;;;;;;;4.15;2.15;;;20.40;44.70;;;;;;6242563;28;20037;-63
2020/12/21 00:09:20;;;;;;;3.55;2.30;;;20.40;44.70;;;;;;6242840;28;20041;-62
2020/12/21 00:12:21;;;;;;;3.38;2.45;;;20.40;44.70;;;;;;6243111;28;20277;-65
2020/12/21 00:15:21;;;;;;;3.60;2.55;;;20.40;44.70;;;;;;6242965;28;20476;-64
2020/12/21 00:18:22;;;;;;;3.75;2.40;;;20.40;44.70;;;;;;6242753;28;20392;-66
2020/12/21 00:21:22;;;;;;;3.35;2.25;;;20.40;44.70;;;;;;6242005;28;20479;-64
2020/12/21 00:24:23;;;;;;;3.47;2.17;;;20.40;44.70;;;;;;6243046;28;20030;-63
2020/12/21 00:27:23;;;;;;;2.88;2.13;;;20.40;44.80;;;;;;6242402;28;20065;-64
2020/12/21 00:30:24;;;;;;;2.63;2.10;;;20.40;44.70;;;;;;6242503;28;20029;-64
2020/12/21 00:33:24;;;;;;;2.85;1.83;;;20.40;44.70;;;;;;6256838;28;20502;-64
2020/12/21 00:36:25;;;;;;;2.75;2.20;;;20.40;44.80;;;;;;6267333;28;20399;-66
2020/12/21 00:39:26;;;;;;;3.03;1.92;;;20.40;44.70;;;;;;6267174;28;20396;-64
2020/12/21 00:42:26;;;;;;;2.67;1.83;;;20.40;44.70;;;;;;6266935;28;20021;-64
2020/12/21 00:45:27;;;;;;;2.88;1.98;;;20.40;44.70;;;;;;6267315;28;20112;-64
2020/12/21 00:48:29;;;;;;;3.00;1.92;;;20.40;44.70;;;;;;6266742;28;20025;-64
2020/12/21 00:51:30;;;;;;;2.92;2.10;;;20.40;44.80;;;;;;6266974;28;20028;-65
2020/12/21 00:54:31;;;;;;;2.72;2.13;;;20.40;44.80;;;;;;6266665;28;20151;-64
2020/12/21 00:57:33;;;;;;;2.38;1.67;;;20.40;44.80;;;;;;6266925;28;20418;-65
2020/12/21 01:00:33;;;;;;;3.55;2.25;;;20.40;45.50;;;;;;6266997;28;20025;-64
2020/12/21 01:03:34;;;;;;;2.83;1.88;;;20.40;44.80;;;;;;6265581;28;20021;-66
2020/12/21 01:06:35;;;;;;;2.50;1.95;;;20.40;44.80;;;;;;6266802;28;20021;-64
2020/12/21 01:09:35;;;;;;;2.50;1.90;;;20.40;44.80;;;;;;6268973;28;20029;-64
2020/12/21 01:12:35;;;;;;;2.80;1.83;;;20.40;44.80;;;;;;6271682;28;20481;-65
2020/12/21 01:15:36;;;;;;;2.50;2.00;;;20.30;44.70;;;;;;6270937;28;20559;-66
2020/12/21 01:18:37;;;;;;;2.20;1.60;;;20.30;44.80;;;;;;6271213;28;20495;-64
2020/12/21 01:21:37;;;;;;;3.63;1.80;;;20.30;44.80;;;;;;6270757;28;20529;-64
2020/12/21 01:24:40;;;;;;;2.10;1.63;;;20.40;44.90;;;;;;6271016;28;20103;-64
2020/12/21 01:27:40;;;;;;;3.15;2.05;;;20.40;44.80;;;;;;6264238;28;20086;-64
2020/12/21 01:30:41;;;;;;;2.17;1.73;;;20.30;44.80;;;;;;6246010;28;20131;-66
2020/12/21 01:33:41;;;;;;;2.92;1.88;;;20.30;44.80;;;;;;6257106;28;20582;-65
2020/12/21 01:36:42;;;;;;;2.75;1.88;;;20.30;45.50;;;;;;6271013;28;20025;-64
2020/12/21 01:39:48;;;;;;;2.45;1.80;;;20.30;44.80;;;;;;6270651;28;20531;-65
2020/12/21 01:42:48;;;;;;;2.80;2.03;;;20.40;44.80;;;;;;6270565;28;20021;-64
2020/12/21 01:45:49;;;;;;;2.28;1.70;;;20.30;44.80;;;;;;6270846;28;20476;-64
2020/12/21 01:48:50;;;;;;;2.50;1.80;;;20.30;44.80;;;;;;6270755;28;20083;-64
2020/12/21 01:51:51;;;;;;;3.38;1.90;;;20.30;44.80;;;;;;6270218;28;20391;-64
2020/12/21 01:54:51;;;;;;;1.98;1.55;;;20.30;44.80;;;;;;6269891;28;20025;-65
2020/12/21 01:57:52;;;;;;;2.92;2.10;;;20.30;44.80;;;;;;6270724;28;20527;-64
2020/12/21 02:00:53;;;;;;;2.17;1.73;;;20.30;44.80;;;;;;6269629;28;20111;-64
2020/12/21 02:03:54;;;;;;;2.25;1.67;;;20.30;44.80;;;;;;6270589;28;20056;-64
2020/12/21 02:06:59;;;;;;;3.05;2.03;;;20.30;44.90;;;;;;6270226;28;20043;-64
2020/12/21 02:09:59;;;;;;;2.35;1.83;;;20.30;44.80;;;;;;6269717;28;20028;-66
2020/12/21 02:13:00;;;;;;;2.40;1.75;;;20.30;44.80;;;;;;6270108;28;20048;-65
2020/12/21 02:16:02;;;;;;;2.20;1.50;;;20.30;44.80;;;;;;6270212;28;20029;-64
2020/12/21 02:19:04;;;;;;;1.80;1.55;;;20.30;44.80;;;;;;6270277;28;20095;-63
2020/12/21 02:22:04;;;;;;;2.58;1.63;;;20.30;44.80;;;;;;6268881;28;20087;-64
2020/12/21 02:25:05;;;;;;;2.08;1.63;;;20.30;44.90;;;;;;6270092;28;20120;-64
2020/12/21 02:28:05;;;;;;;2.78;1.55;;;20.30;44.90;;;;;;6269274;28;20025;-63
2020/12/21 02:31:06;;;;;;;2.28;1.70;;;20.30;44.90;;;;;;6269763;28;20029;-64
2020/12/21 02:34:06;;;;;;;2.33;1.50;;;20.30;44.90;;;;;;6269448;28;20033;-64
2020/12/21 02:37:06;;;;;;;2.42;1.58;;;20.30;44.90;;;;;;6269348;28;20028;-64
2020/12/21 02:40:07;;;;;;;2.17;1.38;;;20.30;44.90;;;;;;6269565;28;20017;-64
2020/12/21 02:43:08;;;;;;;1.98;1.52;;;20.30;44.90;;;;;;6269075;28;20078;-64
2020/12/21 02:46:10;;;;;;;1.98;1.70;;;20.30;44.90;;;;;;6269738;28;20029;-64
2020/12/21 02:49:11;;;;;;;1.92;1.55;;;20.30;44.90;;;;;;6268704;28;20483;-64
2020/12/21 02:52:12;;;;;;;2.03;1.63;;;20.30;44.90;;;;;;6268875;28;20083;-64
2020/12/21 02:55:12;;;;;;;2.42;1.50;;;20.30;44.90;;;;;;6269437;28;20029;-64
2020/12/21 02:58:13;;;;;;;1.67;1.40;;;20.30;44.90;;;;;;6269273;28;20020;-64
2020/12/21 03:01:14;;;;;;;2.22;1.70;;;20.30;44.90;;;;;;6268535;28;20095;-64
2020/12/21 03:04:14;;;;;;;1.92;1.40;;;20.30;45.00;;;;;;6268798;28;20028;-64
2020/12/21 03:07:15;;;;;;;1.40;1.27;;;20.30;44.90;;;;;;6268767;28;20430;-65
2020/12/21 03:10:15;;;;;;;2.50;1.70;;;20.20;44.80;;;;;;6268187;28;20399;-64
2020/12/21 03:13:16;;;;;;;1.63;1.30;;;20.30;45.00;;;;;;6268623;28;20339;-64
2020/12/21 03:16:16;;;;;;;1.70;1.20;;;20.20;44.90;;;;;;6268415;28;20040;-64
2020/12/21 03:19:18;;;;;;;2.28;1.80;;;20.20;44.90;;;;;;6268494;28;20101;-63
2020/12/21 03:22:19;;;;;;;2.25;1.55;;;20.20;44.90;;;;;;6268089;28;20081;-64
2020/12/21 03:25:19;;;;;;;2.75;1.38;;;20.20;45.00;;;;;;6268837;28;20017;-63
2020/12/21 03:28:20;;;;;;;2.13;1.40;;;20.20;45.00;;;;;;6267997;28;20403;-64
2020/12/21 03:31:20;;;;;;;2.13;1.60;;;20.20;44.90;;;;;;6267886;28;20448;-64
2020/12/21 03:34:21;;;;;;;1.70;1.42;;;20.20;45.00;;;;;;6267548;28;20029;-64
2020/12/21 03:37:21;;;;;;;1.88;1.58;;;20.20;44.90;;;;;;6267848;28;20024;-64
2020/12/21 03:40:22;;;;;;;2.03;1.52;;;20.20;44.90;;;;;;6268089;28;20430;-64
2020/12/21 03:43:22;;;;;;;2.53;1.73;;;20.20;45.60;;;;;;6267857;28;20116;-64
2020/12/21 03:46:23;;;;;;;1.90;1.33;;;20.20;44.90;;;;;;6267883;28;20369;-64
2020/12/21 03:49:23;;;;;;;1.75;1.35;;;20.20;44.90;;;;;;6267731;28;20110;-64
2020/12/21 03:52:23;;;;;;;2.00;1.58;;;20.20;44.90;;;;;;6267927;28;20032;-62
2020/12/21 03:55:24;;;;;;;2.50;1.98;;;20.20;44.90;;;;;;6267325;28;20025;-62
2020/12/21 03:58:25;;;;;;;1.85;1.17;;;20.20;44.90;;;;;;6267860;28;20032;-64
2020/12/21 04:01:25;;;;;;;1.70;1.30;;;20.20;45.00;;;;;;6267599;28;20021;-64
2020/12/21 04:04:26;;;;;;;2.50;1.60;;;20.20;45.00;;;;;;6267711;28;20391;-64
2020/12/21 04:07:26;;;;;;;1.73;1.40;;;20.20;45.00;;;;;;6267832;28;20082;-64
2020/12/21 04:10:27;;;;;;;1.83;1.23;;;20.20;45.00;;;;;;6254441;28;20041;-64
2020/12/21 04:13:27;;;;;;;1.70;1.40;;;20.20;45.00;;;;;;6243350;28;20083;-63
2020/12/21 04:16:28;;;;;;;1.67;1.10;;;20.20;45.00;;;;;;6242300;28;20057;-64
2020/12/21 04:19:28;;;;;;;1.52;1.17;;;20.20;45.00;;;;;;6243098;28;20022;-63
2020/12/21 04:22:29;;;;;;;1.27;1.17;;;20.20;45.00;;;;;;6262775;28;20128;-63
2020/12/21 04:25:29;;;;;;;1.75;1.40;;;20.20;45.10;;;;;;6267076;28;20071;-63
2020/12/21 04:28:30;;;;;;;1.67;1.40;;;20.20;45.10;;;;;;6267650;28;20033;-64
2020/12/21 04:31:30;;;;;;;1.77;1.20;;;20.20;45.10;;;;;;6266607;28;20507;-64
2020/12/21 04:34:31;;;;;;;1.55;1.20;;;20.20;45.10;;;;;;6266251;28;20028;-64
2020/12/21 04:37:33;;;;;;;1.77;1.30;;;20.20;45.10;;;;;;6267100;28;20419;-64
2020/12/21 04:40:33;;;;;;;1.75;1.40;;;20.20;45.10;;;;;;6267240;28;20029;-62
2020/12/21 04:43:34;;;;;;;1.80;1.20;;;20.10;45.00;;;;;;6267775;28;20092;-64
2020/12/21 04:46:35;;;;;;;1.40;1.30;;;20.10;45.00;;;;;;6271304;28;20021;-64
2020/12/21 04:49:36;;;;;;;2.22;1.55;;;20.20;45.00;;;;;;6272296;28;20036;-64
2020/12/21 04:52:46;;;;;;;2.25;1.30;;;20.20;45.00;;;;;;6271651;28;20529;-64
2020/12/21 04:55:47;;;;;;;1.30;1.20;;;20.20;45.00;;;;;;6271952;28;20052;-64
2020/12/21 04:58:48;;;;;;;1.63;1.30;;;20.20;45.00;;;;;;6271803;28;20017;-64
2020/12/21 05:01:48;;;;;;;1.25;1.10;;;20.20;45.00;;;;;;6271659;28;20125;-63
2020/12/21 05:04:52;;;;;;;1.25;1.15;;;20.10;45.00;;;;;;6271881;28;20044;-64
2020/12/21 05:07:53;;;;;;;2.05;1.60;;;20.10;45.00;;;;;;6271449;28;20499;-65
2020/12/21 05:11:02;;;;;;;1.70;1.33;;;20.20;44.90;;;;;;6271179;28;20028;-64
2020/12/21 05:14:10;;;;;;;1.13;1.02;;;20.20;44.90;;;;;;6272763;28;20305;-64
2020/12/21 05:17:12;;;;;;;2.00;1.60;;;20.20;44.90;;;;;;6272040;28;20025;-64
2020/12/21 05:20:13;;;;;;;1.33;1.20;;;20.20;44.90;;;;;;6272386;28;20017;-64
2020/12/21 05:23:18;;;;;;;1.75;1.20;;;20.30;45.00;;;;;;6271871;28;20040;-64
2020/12/21 05:26:18;;;;;;;1.55;1.20;;;20.20;44.90;;;;;;6272286;28;20040;-64
2020/12/21 05:29:28;;;;;;;2.03;1.40;;;20.30;45.10;;;;;;6272143;28;20299;-64
2020/12/21 05:32:28;;;;;;;1.20;1.10;;;20.30;45.10;;;;;;6271234;28;20028;-65
2020/12/21 05:35:30;;;;;;;1.98;1.42;;;20.30;45.20;;;;;;6270830;28;20570;-64
2020/12/21 05:38:30;;;;;;;1.70;1.20;;;20.30;45.30;;;;;;6271105;28;20112;-64
2020/12/21 05:41:31;;;;;;;1.70;1.38;;;20.30;45.20;;;;;;6271046;28;20043;-64
2020/12/21 05:44:31;;;;;;;1.65;1.25;;;20.30;45.30;;;;;;6270423;28;20253;-62
2020/12/21 05:47:32;;;;;;;1.50;1.20;;;20.30;45.30;;;;;;6271015;28;20032;-62
2020/12/21 05:50:40;;;;;;;1.42;1.00;;;20.30;45.30;;;;;;6270151;28;20260;-64
2020/12/21 05:53:43;;;;;;;0.95;0.88;;;20.30;45.30;;;;;;6258855;28;20116;-64
2020/12/21 05:56:45;;;;;;;1.15;0.90;;;20.30;45.30;;;;;;6269519;28;20119;-63
2020/12/21 05:59:47;;;;;;;1.63;1.10;;;20.30;45.40;;;;;;6270686;28;20021;-63
2020/12/21 06:02:55;;;;;;;1.08;0.98;;;20.30;45.40;;;;;;6270049;28;20035;-64
2020/12/21 06:05:59;;;;;;;1.88;1.23;;;20.30;45.40;;;;;;6269509;28;20032;-64
2020/12/21 06:09:14;;;;;;;1.58;1.17;;;20.30;45.30;;;;;;6270144;28;20029;-64
2020/12/21 06:12:15;;;;;;;1.30;1.00;;;20.40;45.00;;;;;;6268751;28;20073;-64
2020/12/21 06:15:20;;;;;;;1.20;1.10;;;20.50;44.70;;;;;;6269958;28;20126;-64
2020/12/21 06:18:20;;;;;;;1.33;1.10;;;20.60;44.70;;;;;;6270257;28;20029;-64
2020/12/21 06:21:25;;;;;;;1.40;0.90;;;20.70;44.70;;;;;;6269576;28;20028;-63
2020/12/21 06:24:26;;;;;;;1.10;0.90;;;20.70;44.70;;;;;;6268875;28;20119;-64
2020/12/21 06:27:37;;;;;;;1.10;1.00;;;20.70;44.90;;;;;;6269547;28;20184;-64
2020/12/21 06:30:38;;;;;;;1.13;1.00;;;20.80;45.00;;;;;;6269763;28;20029;-64
2020/12/21 06:33:39;;;;;;;1.42;1.00;;;20.80;45.00;;;;;;6269952;28;20036;-64
2020/12/21 06:36:40;;;;;;;1.10;1.00;;;20.80;45.00;;;;;;6269745;28;20476;-65
2020/12/21 06:39:40;;;;;;;1.02;0.90;;;20.90;45.20;;;;;;6269816;28;20029;-64
2020/12/21 06:42:41;;;;;;;1.20;1.08;;;20.90;45.20;;;;;;6267543;28;20494;-63
2020/12/21 06:45:41;;;;;;;1.27;0.90;;;20.90;45.20;;;;;;6269598;28;20036;-64
2020/12/21 06:48:42;;;;;;;1.23;0.98;;;20.90;45.20;;;;;;6269066;28;20074;-64
2020/12/21 06:51:45;;;;;;;1.15;0.90;;;21.00;45.30;;;;;;6268937;28;20506;-65
2020/12/21 06:54:48;;;;;;;1.20;0.90;;;21.00;45.10;;;;;;6268920;28;20030;-64
2020/12/21 06:57:52;;;;;;;1.98;1.40;;;21.00;45.00;;;;;;6243603;28;20025;-66
2020/12/21 07:00:53;;;;;;;1.88;1.20;;;21.00;44.70;;;;;;6240933;28;20510;-66
2020/12/21 07:03:54;;;;;;;9.57;1.70;;;21.10;44.70;;;;;;6246778;28;20048;-65
2020/12/21 07:07:03;;;;;;;3.58;1.58;;;21.20;44.80;;;;;;6243852;28;20486;-65
2020/12/21 07:10:03;;;;;;;4.07;2.00;;;21.20;44.90;;;;;;6247839;28;20476;-67
2020/12/21 07:13:04;;;;;;;4.82;1.73;;;21.20;44.50;;;;;;6260394;28;20029;-65
2020/12/21 07:16:06;;;;;;;5.80;1.67;;;21.40;45.30;;;;;;6253843;28;20060;-64
2020/12/21 07:19:09;;;;;;;23.02;1.75;;;21.40;45.30;;;;;;6255464;28;20671;-64
2020/12/21 07:22:11;;;;;;;6.72;1.70;;;21.40;45.10;;;;;;6246342;28;20030;-66
2020/12/21 07:25:12;;;;;;;12.68;1.95;;;21.40;45.00;;;;;;6256638;28;20021;-64
2020/12/21 07:28:22;;;;;;;9.95;1.70;;;21.40;45.10;;;;;;6262882;28;20455;-65
2020/12/21 07:31:23;;;;;;;6.57;1.38;;;21.40;45.10;;;;;;6241445;28;20025;-64
2020/12/21 07:34:24;;;;;;;8.15;1.45;;;21.40;45.10;;;;;;6256671;28;20037;-61
2020/12/21 07:37:24;;;;;;;3.80;1.30;;;21.50;45.20;;;;;;6268276;28;20075;-63
2020/12/21 07:40:26;;;;;;;9.02;1.60;;;21.50;45.20;;;;;;6254902;28;20025;-64
2020/12/21 07:43:34;;;;;;;4.30;1.38;;;21.50;45.20;;;;;;6243769;28;20116;-64
2020/12/21 07:46:39;;;;;;;4.65;1.60;;;21.50;45.10;;;;;;6282905;28;20082;-64
2020/12/21 07:49:39;;;;;;;;;;;21.50;45.20;;;;;;6250566;28;20033;-64
2020/12/21 07:52:40;;;;;;;2.47;1.33;;;21.50;45.10;;;;;;6244685;28;19974;-65
2020/12/21 07:55:41;;;;;;;7.05;1.40;;;21.50;45.20;;;;;;6243692;28;20477;-65
2020/12/21 07:58:41;;;;;;;5.97;1.35;;;21.60;45.20;;;;;;6242691;28;20037;-65
2020/12/21 08:01:43;;;;;;;4.75;1.08;;;21.60;45.30;;;;;;6238439;28;20036;-69
2020/12/21 08:04:44;;;;;;;8.27;1.42;;;21.50;45.70;;;;;;6241982;28;20033;-68
2020/12/21 08:07:44;;;;;;;1.98;1.15;;;21.60;45.40;;;;;;6247465;28;20112;-67
2020/12/21 08:10:55;;;;;;;4.43;1.05;;;21.50;45.40;;;;;;6258628;28;20115;-68
2020/12/21 08:13:55;;;;;;;1.83;1.20;;;21.50;45.40;;;;;;6267639;28;20025;-68
2020/12/21 08:16:56;;;;;;;3.10;1.17;;;21.50;45.40;;;;;;6244538;28;20036;-69
2020/12/21 08:19:59;;;;;;;2.67;1.20;;;21.50;45.70;;;;;;6263742;28;20021;-69
2020/12/21 08:22:59;;;;;;;3.58;1.30;;;21.50;45.20;;;;;;6248077;28;20074;-68
2020/12/21 08:26:00;;;;;;;19.05;2.35;;;21.60;45.20;;;;;;6247054;28;20492;-61
2020/12/21 08:29:00;;;;;;;28.13;1.85;;;21.60;45.30;;;;;;6252454;28;20654;-64
2020/12/21 08:32:01;;;;;;;8.50;1.20;;;21.60;45.90;;;;;;6261075;28;20028;-65
2020/12/21 08:35:01;;;;;;;5.55;1.15;;;21.60;45.30;;;;;;6250666;28;20052;-65
2020/12/21 08:38:14;;;;;;;12.10;1.30;;;21.60;45.30;;;;;;6242145;28;20029;-65
2020/12/21 08:41:14;;;;;;;4.50;1.40;;;21.60;45.30;;;;;;6259557;28;20018;-66
2020/12/21 08:44:20;;;;;;;2.97;1.42;;;21.60;45.30;;;;;;6243362;28;20099;-66
2020/12/21 08:47:20;;;;;;;7.88;0.93;;;21.60;45.30;;;;;;6243221;28;20037;-65
2020/12/21 08:50:21;;;;;;;13.02;1.30;;;21.60;45.20;;;;;;6246986;28;20476;-64
2020/12/21 08:53:21;;;;;;;3.63;1.00;;;21.60;45.30;;;;;;6242413;28;20052;-64
2020/12/21 08:56:22;;;;;;;1.92;1.17;;;21.60;46.10;;;;;;6248976;28;20037;-64
2020/12/21 08:59:23;;;;;;;1.38;0.90;;;21.60;45.40;;;;;;6242730;28;20029;-65
2020/12/21 09:02:23;;;;;;;5.18;1.10;;;21.60;45.40;;;;;;6242520;28;20025;-65
2020/12/21 09:05:23;;;;;;;1.92;1.30;;;21.60;45.40;;;;;;6248611;28;20021;-64
2020/12/21 09:08:24;;;;;;;16.98;1.95;;;21.60;45.40;;;;;;6266856;28;20066;-65
2020/12/21 09:11:25;;;;;;;12.45;2.20;;;21.60;45.50;;;;;;6266118;28;20025;-65
2020/12/21 09:14:26;;;;;;;8.82;1.40;;;21.60;45.20;;;;;;6267551;28;20028;-64
2020/12/21 09:17:26;;;;;;;13.65;1.55;;;21.70;45.10;;;;;;6266351;28;20680;-67
2020/12/21 09:20:26;;;;;;;12.82;1.35;;;21.70;45.30;;;;;;6267126;28;20740;-65
2020/12/21 09:23:27;;;;;;;5.68;1.30;;;21.80;45.20;;;;;;6266175;28;20369;-63
2020/12/21 09:26:28;;;;;;;9.48;1.85;;;21.80;45.40;;;;;;6266294;28;20112;-65
2020/12/21 09:29:28;;;;;;;12.23;2.15;;;21.60;44.90;;;;;;6248177;28;20022;-67
2020/12/21 09:32:29;;;;;;;11.02;2.08;;;21.60;45.20;;;;;;6267672;28;20033;-66
2020/12/21 09:35:30;;;;;;;13.40;2.13;;;21.70;44.90;;;;;;6271618;28;20025;-65
2020/12/21 09:38:30;;;;;;;17.88;2.65;;;21.70;44.80;;;;;;6268812;28;20028;-66
2020/12/21 09:41:31;;;;;;;22.88;2.20;;;21.70;44.60;;;;;;6270827;28;20486;-66
2020/12/21 09:44:31;;;;;;;6.93;1.95;;;21.70;44.70;;;;;;6248335;28;20042;-68
2020/12/21 09:47:32;;;;;;;6.55;1.80;;;21.80;44.80;;;;;;6256494;28;20029;-67
2020/12/21 09:50:32;;;;;;;5.43;1.52;;;21.80;44.90;;;;;;6270189;28;20115;-65
2020/12/21 09:53:33;;;;;;;7.13;1.70;;;21.80;45.00;;;;;;6245960;28;20527;-65
2020/12/21 09:56:33;;;;;;;5.35;1.38;;;21.80;44.90;;;;;;6257671;28;20553;-66
2020/12/21 09:59:34;;;;;;;5.10;1.65;;;21.80;45.30;;;;;;6270605;28;20052;-66
2020/12/21 10:02:34;;;;;;;4.35;1.60;;;21.80;45.40;;;;;;6270840;28;20029;-70
2020/12/21 10:05:34;;;;;;;5.10;1.40;;;21.80;45.30;;;;;;6270432;28;20029;-66
2020/12/21 10:08:38;;;;;;;5.28;1.23;;;21.80;45.20;;;;;;6264187;28;20542;-66
2020/12/21 10:11:39;;;;;;;4.32;1.05;;;21.80;45.40;;;;;;6244918;28;20063;-66
2020/12/21 10:14:42;;;;;;;2.63;1.10;;;21.80;45.40;;;;;;6245733;28;20037;-66
2020/12/21 10:17:43;;;;;;;2.95;1.13;;;21.80;45.30;;;;;;6263096;28;20009;-66
2020/12/21 10:20:44;;;;;;;7.47;1.30;;;21.80;45.30;;;;;;6269735;28;20032;-66
2020/12/21 10:23:44;;;;;;;4.90;1.27;;;21.90;45.30;;;;;;6251969;28;20075;-69
2020/12/21 10:26:44;;;;;;;2.85;1.17;;;21.80;45.20;;;;;;6250775;28;20052;-67
2020/12/21 10:29:45;;;;;;;4.00;1.08;;;21.80;45.10;;;;;;6245390;28;20107;-68
2020/12/21 10:32:45;;;;;;;2.17;1.02;;;21.80;45.10;;;;;;6248941;28;20032;-67
2020/12/21 10:35:46;;;;;;;1.42;0.80;;;21.80;45.20;;;;;;6269994;28;20090;-69
2020/12/21 10:38:47;;;;;;;2.30;1.10;;;21.80;45.10;;;;;;6245906;28;20475;-68
2020/12/21 10:41:48;;;;;;;4.47;2.00;;;21.80;45.50;;;;;;6244038;28;20021;-66
2020/12/21 10:44:48;;;;;;;7.45;2.25;;;21.70;44.30;;;;;;6234524;28;20032;-66
2020/12/21 10:47:49;;;;;;;5.03;2.17;;;21.70;43.70;;;;;;6235977;28;20026;-66
2020/12/21 10:50:49;;;;;;;3.33;1.58;;;21.70;43.70;;;;;;6245528;28;20030;-66
2020/12/21 10:53:50;;;;;;;6.22;1.95;;;21.70;44.30;;;;;;6245650;28;20116;-65
2020/12/21 10:56:52;;;;;;;5.45;1.77;;;21.70;44.10;;;;;;6251390;28;20060;-65
2020/12/21 10:59:52;;;;;;;5.70;1.60;;;21.70;44.30;;;;;;6270297;28;20021;-63
2020/12/21 11:02:52;;;;;;;3.22;1.50;;;21.70;44.30;;;;;;6269776;28;20039;-66
2020/12/21 11:05:53;;;;;;;5.47;1.58;;;21.70;44.60;;;;;;6270204;28;20025;-64
2020/12/21 11:08:54;;;;;;;3.75;1.55;;;21.60;44.50;;;;;;6270496;28;20086;-65
2020/12/21 11:11:54;;;;;;;1.98;1.30;;;21.60;44.60;;;;;;6249198;28;20033;-65
2020/12/21 11:14:54;;;;;;;4.30;1.50;;;21.60;44.50;;;;;;6245296;28;20488;-67
2020/12/21 11:17:55;;;;;;;5.53;1.45;;;21.60;44.60;;;;;;6245359;28;20743;-66
2020/12/21 11:20:57;;;;;;;3.45;1.20;;;21.60;44.80;;;;;;6245140;28;20026;-66
2020/12/21 11:23:58;;;;;;;2.03;1.00;;;21.60;44.80;;;;;;6245776;28;20704;-65
2020/12/21 11:26:59;;;;;;;2.22;1.27;;;21.60;44.70;;;;;;6245592;28;20036;-66
2020/12/21 11:29:59;;;;;;;1.58;1.17;;;21.60;44.80;;;;;;6247080;28;20108;-65
2020/12/21 11:33:00;;;;;;;2.50;1.17;;;21.60;44.80;;;;;;6269974;28;20021;-64
2020/12/21 11:36:00;;;;;;;2.22;1.38;;;21.60;44.90;;;;;;6269927;28;20048;-65
2020/12/21 11:39:01;;;;;;;1.80;1.10;;;21.50;44.80;;;;;;6268269;28;20127;-64
2020/12/21 11:42:07;;;;;;;2.47;1.30;;;21.60;44.90;;;;;;6269475;28;20061;-65
2020/12/21 11:45:07;;;;;;;;;;;21.60;44.90;;;;;;6263201;28;20031;-65
2020/12/21 11:48:08;;;;;;;1.98;1.17;;;21.60;44.90;;;;;;6263259;28;20403;-65
2020/12/21 11:51:08;;;;;;;4.07;0.93;;;21.60;45.10;;;;;;6245281;28;20468;-66
2020/12/21 11:54:09;;;;;;;2.67;1.33;;;21.50;44.90;;;;;;6244623;28;20026;-64
2020/12/21 11:57:09;;;;;;;1.38;0.90;;;21.50;45.00;;;;;;6246751;28;20018;-65
2020/12/21 12:00:09;;;;;;;1.80;1.10;;;21.50;45.00;;;;;;6250855;28;20074;-65
2020/12/21 12:03:10;;;;;;;1.20;0.80;;;21.50;45.00;;;;;;6262984;28;20091;-65
2020/12/21 12:06:11;;;;;;;1.98;1.13;;;21.50;45.00;;;;;;6245942;28;20534;-65
2020/12/21 12:09:12;;;;;;;1.42;0.90;;;21.60;45.10;;;;;;6260778;28;20488;-65
2020/12/21 12:12:13;;;;;;;1.20;0.82;;;21.60;45.10;;;;;;6268967;28;20021;-64
2020/12/21 12:15:13;;;;;;;1.05;0.82;;;21.50;45.10;;;;;;6256468;28;20079;-65
2020/12/21 12:18:14;;;;;;;1.30;0.88;;;21.50;45.10;;;;;;6245172;28;20108;-65
2020/12/21 12:21:22;;;;;;;2.20;0.88;;;21.50;45.00;;;;;;6242858;28;20022;-65
2020/12/21 12:24:22;;;;;;;1.45;0.80;;;21.50;45.10;;;;;;6244532;28;20116;-65
2020/12/21 12:27:23;;;;;;;1.73;1.20;;;21.50;45.10;;;;;;6243786;28;20373;-65
2020/12/21 12:30:23;;;;;;;1.73;0.95;;;21.50;45.10;;;;;;6248876;28;20022;-65
2020/12/21 12:33:24;;;;;;;1.27;0.90;;;21.50;45.20;;;;;;6268161;28;20523;-64
2020/12/21 12:36:26;;;;;;;2.47;1.20;;;21.50;45.20;;;;;;6266198;28;20495;-65
2020/12/21 12:39:26;;;;;;;19.83;1.25;;;21.50;45.20;;;;;;6230350;28;20052;-64
2020/12/21 12:42:28;;;;;;;12.02;1.02;;;21.50;45.30;;;;;;6241323;28;20034;-65
2020/12/21 12:45:28;;;;;;;1.55;1.10;;;21.60;45.20;;;;;;6233951;28;20014;-68
2020/12/21 12:48:29;;;;;;;11.75;0.80;;;21.70;44.90;;;;;;6243122;28;20698;-65
2020/12/21 12:51:30;;;;;;;1.40;0.77;;;21.70;45.20;;;;;;6258431;28;20679;-64
2020/12/21 12:54:30;;;;;;;2.28;0.77;;;21.70;45.20;;;;;;6263099;28;20040;-66
2020/12/21 12:57:31;;;;;;;4.43;0.80;;;21.70;45.10;;;;;;6248013;28;20033;-68
2020/12/21 13:00:31;;;;;;;2.33;0.95;;;21.70;45.10;;;;;;6248040;28;20022;-67
2020/12/21 13:03:32;;;;;;;3.83;1.10;;;21.80;44.90;;;;;;6240148;28;20030;-67
2020/12/21 13:06:32;;;;;;;1.70;1.10;;;21.90;45.30;;;;;;6242869;28;20056;-66
2020/12/21 13:09:33;;;;;;;2.40;1.20;;;21.80;45.50;;;;;;6246667;28;20036;-68
2020/12/21 13:12:33;;;;;;;2.75;1.00;;;21.90;45.40;;;;;;6249698;28;20049;-67
2020/12/21 13:15:33;;;;;;;9.43;1.38;;;21.90;45.30;;;;;;6257073;28;20044;-64
2020/12/21 13:18:34;;;;;;;11.95;1.20;;;22.00;45.30;;;;;;6270711;28;20032;-69
2020/12/21 13:21:37;;;;;;;9.40;1.38;;;22.00;45.60;;;;;;6255718;28;20534;-67
2020/12/21 13:24:37;;;;;;;2.75;1.02;;;22.00;45.20;;;;;;6247168;28;20645;-67
2020/12/21 13:27:38;;;;;;;4.03;1.00;;;22.00;44.90;;;;;;6265228;28;20108;-68
2020/12/21 13:30:38;;;;;;;13.43;1.23;;;22.00;45.10;;;;;;6259915;28;20029;-68
2020/12/21 13:33:39;;;;;;;6.25;1.10;;;22.00;45.00;;;;;;6257193;28;20076;-69
2020/12/21 13:36:41;;;;;;;1.83;0.95;;;22.00;45.40;;;;;;6250225;28;20071;-69
2020/12/21 13:39:42;;;;;;;3.00;1.00;;;22.00;45.10;;;;;;6246948;28;20017;-71
2020/12/21 13:42:42;;;;;;;6.70;1.20;;;22.00;45.10;;;;;;6250643;28;20377;-67
2020/12/21 13:45:43;;;;;;;2.53;1.02;;;22.10;45.80;;;;;;6250334;28;20403;-64
2020/12/21 13:48:43;;;;;;;5.25;1.10;;;22.10;45.70;;;;;;6257434;28;20025;-66
2020/12/21 13:51:44;;;;;;;6.85;0.80;;;22.20;45.90;;;;;;6258035;28;20025;-66
2020/12/21 13:54:44;;;;;;;4.07;1.30;;;22.10;45.80;;;;;;6269559;28;20124;-63
2020/12/21 13:57:44;;;;;;;7.57;1.45;;;22.10;46.60;;;;;;6248721;28;20034;-66
2020/12/21 14:00:45;;;;;;;1.77;1.00;;;22.20;47.30;;;;;;6244771;28;20029;-69
2020/12/21 14:03:45;;;;;;;1.42;1.00;;;22.20;47.30;;;;;;6244968;28;20037;-67
2020/12/21 14:06:46;;;;;;;2.20;0.98;;;22.20;47.10;;;;;;6250627;28;20622;-66
2020/12/21 14:09:46;;;;;;;2.92;0.98;;;22.20;47.00;;;;;;6270029;28;20033;-68
2020/12/21 14:12:47;;;;;;;3.65;0.90;;;22.20;46.60;;;;;;6267111;28;20086;-71
2020/12/21 14:15:47;;;;;;;4.07;1.08;;;22.20;46.80;;;;;;6249282;28;20104;-65
2020/12/21 14:18:52;;;;;;;2.92;0.80;;;22.20;46.60;;;;;;6268828;28;20552;-66
2020/12/21 14:21:53;;;;;;;5.60;1.13;;;22.20;46.50;;;;;;6259624;28;20032;-68
2020/12/21 14:24:53;;;;;;;2.63;1.20;;;22.20;46.60;;;;;;6249296;28;20033;-67
2020/12/21 14:27:54;;;;;;;2.28;1.10;;;22.20;46.10;;;;;;6255480;28;20109;-66
2020/12/21 14:30:54;;;;;;;1.38;0.80;;;22.20;46.10;;;;;;6244190;28;20029;-67
2020/12/21 14:33:55;;;;;;;2.47;0.95;;;22.20;46.10;;;;;;6254539;28;20106;-66
2020/12/21 14:37:00;;;;;;;1.33;0.90;;;22.20;46.00;;;;;;6243350;28;20030;-67
2020/12/21 14:40:01;;;;;;;2.20;1.00;;;22.20;45.90;;;;;;6243518;28;20032;-68
2020/12/21 14:43:01;;;;;;;1.75;0.98;;;22.20;45.80;;;;;;6243670;28;20070;-68
2020/12/21 14:46:02;;;;;;;1.42;0.90;;;22.20;45.80;;;;;;6247020;28;20031;-68
2020/12/21 14:49:02;;;;;;;1.10;0.80;;;22.20;45.60;;;;;;6238154;28;20032;-69
2020/12/21 14:52:03;;;;;;;7.40;0.80;;;22.30;45.60;;;;;;6254339;28;20541;-67
2020/12/21 14:55:03;;;;;;;6.70;1.00;;;22.30;45.60;;;;;;6268086;28;20025;-68
2020/12/21 14:58:04;;;;;;;1.20;0.68;;;22.30;45.60;;;;;;6251133;28;20032;-66
2020/12/21 15:01:04;;;;;;;10.35;0.88;;;22.30;45.50;;;;;;6243391;28;20029;-73
2020/12/21 15:04:05;;;;;;;1.60;0.77;;;22.40;45.50;;;;;;6244161;28;20100;-67
2020/12/21 15:07:06;;;;;;;3.03;0.80;;;22.40;45.40;;;;;;6249729;28;20025;-65
2020/12/21 15:10:08;;;;;;;2.42;0.90;;;22.40;45.20;;;;;;6244621;28;20071;-66
2020/12/21 15:13:09;;;;;;;1.58;0.88;;;22.40;45.20;;;;;;6251539;28;20029;-67
2020/12/21 15:16:11;;;;;;;1.63;1.00;;;22.40;45.20;;;;;;6248672;28;20131;-68
2020/12/21 15:19:12;;;;;;;0.50;0.50;;;22.40;45.10;;;;;;6250926;28;20017;-69
2020/12/21 15:22:13;;;;;;;1.58;0.80;;;22.40;45.10;;;;;;6243846;28;20608;-66
2020/12/21 15:25:13;;;;;;;2.00;0.80;;;22.40;45.10;;;;;;6249345;28;20079;-68
2020/12/21 15:28:14;;;;;;;4.85;1.02;;;22.40;45.10;;;;;;6246896;28;20033;-68
2020/12/21 15:31:14;;;;;;;5.32;0.93;;;22.30;45.10;;;;;;6243835;28;20029;-68
2020/12/21 15:34:16;;;;;;;2.25;0.90;;;22.30;45.20;;;;;;6244430;28;20025;-66
2020/12/21 15:37:17;;;;;;;4.43;0.70;;;22.30;45.10;;;;;;6240870;28;20021;-68
2020/12/21 15:40:18;;;;;;;3.20;0.95;;;22.30;45.10;;;;;;6245675;28;20049;-68